createdAt,value
2017-09-27T03:30:30.075Z,14.90
2017-09-27T03:32:57.733Z,14.90
2017-09-27T03:35:25.336Z,14.90
2017-09-27T03:37:53.728Z,14.90
2017-09-27T03:40:21.356Z,15.00
2017-09-27T03:42:48.998Z,14.90
2017-09-27T03:45:16.610Z,14.90
2017-09-27T03:47:44.224Z,15.00
2017-09-27T03:50:11.975Z,15.00
2017-09-27T03:52:40.349Z,14.80
2017-09-27T03:55:07.961Z,14.80
2017-09-27T03:57:36.372Z,14.90
2017-09-27T04:00:05.667Z,14.90
2017-09-27T04:02:33.272Z,14.80
2017-09-27T04:05:00.905Z,14.70
2017-09-27T04:07:28.517Z,14.70
2017-09-27T04:09:56.933Z,14.80
2017-09-27T04:12:24.568Z,14.80
2017-09-27T04:14:52.169Z,14.80
2017-09-27T04:17:19.776Z,14.90
2017-09-27T04:19:48.169Z,14.80
2017-09-27T04:22:16.600Z,14.90
2017-09-27T04:24:44.196Z,14.90
2017-09-27T04:27:12.592Z,14.90
2017-09-27T04:29:40.232Z,14.80
2017-09-27T04:32:08.653Z,15.00
2017-09-27T04:34:36.265Z,15.00
2017-09-27T04:37:03.872Z,15.20
2017-09-27T04:39:31.501Z,15.20
2017-09-27T04:41:59.874Z,14.90
2017-09-27T04:44:28.246Z,14.90
2017-09-27T04:46:55.914Z,14.90
2017-09-27T04:49:24.286Z,15.10
2017-09-27T04:51:51.948Z,15.10
2017-09-27T04:54:19.556Z,15.20
2017-09-27T04:56:47.163Z,15.30
2017-09-27T04:59:14.786Z,15.40
2017-09-27T05:01:42.389Z,15.30
2017-09-27T05:04:10.044Z,15.30
2017-09-27T05:06:37.627Z,15.20
2017-09-27T05:09:06.006Z,15.00
2017-09-27T05:11:34.395Z,15.00
2017-09-27T05:14:01.996Z,15.00
2017-09-27T05:16:29.641Z,14.90
2017-09-27T05:18:57.250Z,14.90
2017-09-27T05:21:24.849Z,15.00
2017-09-27T05:23:52.870Z,15.10
2017-09-27T05:26:20.483Z,15.20
2017-09-27T05:28:48.089Z,15.10
2017-09-27T05:31:15.726Z,15.10
2017-09-27T05:33:43.325Z,15.10
2017-09-27T05:36:10.962Z,15.10
2017-09-27T05:38:38.567Z,15.10
2017-09-27T05:41:06.938Z,15.40
2017-09-27T05:43:35.332Z,15.40
2017-09-27T05:46:02.934Z,15.40
2017-09-27T05:48:30.660Z,15.40
2017-09-27T05:50:58.312Z,15.50
2017-09-27T05:53:25.912Z,15.50
2017-09-27T05:55:53.541Z,15.40
2017-09-27T05:58:21.557Z,15.40
2017-09-27T06:00:49.189Z,15.40
2017-09-27T06:03:16.800Z,15.50
2017-09-27T06:05:44.446Z,15.60
2017-09-27T06:08:12.069Z,15.70
2017-09-27T06:10:39.673Z,15.70
2017-09-27T06:13:07.303Z,15.70
2017-09-27T06:15:34.900Z,15.70
2017-09-27T06:18:02.542Z,15.80
2017-09-27T06:20:30.149Z,15.90
2017-09-27T06:22:58.543Z,15.90
2017-09-27T06:25:26.454Z,15.90
2017-09-27T06:27:54.065Z,16.00
2017-09-27T06:30:21.717Z,16.10
2017-09-27T06:32:49.460Z,16.10
2017-09-27T06:35:17.059Z,16.20
2017-09-27T06:37:44.701Z,16.40
2017-09-27T06:40:12.317Z,16.50
2017-09-27T06:42:39.934Z,16.60
2017-09-27T06:45:07.589Z,16.60
2017-09-27T06:47:37.933Z,16.80
2017-09-27T06:50:05.717Z,16.80
2017-09-27T06:52:34.096Z,16.90
2017-09-27T06:55:01.710Z,16.80
2017-09-27T06:57:30.096Z,16.80
2017-09-27T06:59:58.463Z,16.90
2017-09-27T07:02:26.879Z,16.90
2017-09-27T07:04:54.533Z,16.90
2017-09-27T07:07:22.238Z,17.00
2017-09-27T07:09:49.869Z,17.10
2017-09-27T07:12:17.484Z,17.20
2017-09-27T07:14:45.880Z,17.00
2017-09-27T07:17:13.493Z,17.00
2017-09-27T07:19:41.096Z,17.10
2017-09-27T07:22:09.474Z,17.00
2017-09-27T07:24:37.869Z,16.90
2017-09-27T07:27:05.496Z,16.90
2017-09-27T07:29:33.221Z,16.90
2017-09-27T07:32:00.917Z,16.90
2017-09-27T07:34:28.881Z,17.00
2017-09-27T07:36:56.481Z,17.20
2017-09-27T07:39:24.133Z,17.20
2017-09-27T07:41:52.520Z,17.70
2017-09-27T07:44:20.121Z,17.60
2017-09-27T07:46:47.772Z,17.60
2017-09-27T07:49:15.449Z,17.80
2017-09-27T07:51:43.053Z,18.00
2017-09-27T07:54:11.463Z,18.20
2017-09-27T07:56:39.078Z,18.10
2017-09-27T07:59:06.746Z,18.30
2017-09-27T08:01:34.389Z,18.20
2017-09-27T08:04:02.217Z,17.90
2017-09-27T08:06:30.613Z,17.80
2017-09-27T08:08:58.240Z,17.90
2017-09-27T08:11:25.837Z,18.00
2017-09-27T08:13:53.448Z,18.00
2017-09-27T08:16:21.425Z,18.30
2017-09-27T08:18:49.029Z,18.20
2017-09-27T08:21:16.656Z,18.30
2017-09-27T08:23:44.770Z,18.40
2017-09-27T08:26:12.386Z,18.60
2017-09-27T08:28:39.993Z,18.70
2017-09-27T08:31:07.609Z,18.70
2017-09-27T08:33:35.209Z,18.80
2017-09-27T08:36:03.293Z,19.00
2017-09-27T08:38:30.882Z,19.10
2017-09-27T08:40:59.243Z,18.90
2017-09-27T08:43:27.212Z,18.90
2017-09-27T08:45:54.814Z,18.90
2017-09-27T08:48:22.425Z,19.00
2017-09-27T08:50:50.481Z,19.00
2017-09-27T08:53:18.085Z,19.30
2017-09-27T08:55:46.453Z,19.90
2017-09-27T08:58:15.220Z,20.10
2017-09-27T09:00:42.867Z,20.10
2017-09-27T09:03:10.474Z,20.40
2017-09-27T09:05:38.510Z,20.60
2017-09-27T09:08:06.108Z,20.70
2017-09-27T09:10:33.710Z,20.60
2017-09-27T09:13:01.365Z,20.50
2017-09-27T09:15:28.972Z,20.60
2017-09-27T09:17:57.735Z,20.70
2017-09-27T09:20:25.344Z,20.70
2017-09-27T09:22:52.955Z,20.70
2017-09-27T09:25:20.592Z,20.70
2017-09-27T09:27:48.203Z,20.90
2017-09-27T09:30:16.967Z,21.40
2017-09-27T09:32:44.574Z,21.30
2017-09-27T09:35:12.171Z,21.50
2017-09-27T09:37:39.788Z,21.70
2017-09-27T09:40:08.157Z,21.70
2017-09-27T09:42:37.843Z,21.80
2017-09-27T09:45:05.448Z,21.80
2017-09-27T09:47:33.067Z,21.80
2017-09-27T09:50:01.046Z,21.80
2017-09-27T09:52:28.642Z,21.40
2017-09-27T09:54:56.241Z,21.40
2017-09-27T09:57:24.248Z,21.90
2017-09-27T09:59:53.533Z,22.80
2017-09-27T10:02:21.144Z,22.80
2017-09-27T10:04:49.151Z,22.90
2017-09-27T10:07:16.749Z,23.00
2017-09-27T10:09:44.421Z,23.10
2017-09-27T10:12:12.399Z,22.90
2017-09-27T10:14:39.991Z,22.90
2017-09-27T10:17:07.592Z,22.90
2017-09-27T10:19:35.985Z,23.10
2017-09-27T10:22:03.641Z,23.10
2017-09-27T10:24:32.391Z,23.90
2017-09-27T10:27:00.034Z,23.80
2017-09-27T10:29:27.626Z,25.30
2017-09-27T10:31:55.382Z,26.20
2017-09-27T10:34:22.986Z,26.30
2017-09-27T10:36:50.583Z,26.20
2017-09-27T10:39:18.225Z,26.80
2017-09-27T10:41:45.831Z,29.60
2017-09-27T10:44:13.634Z,33.20
2017-09-27T10:46:41.234Z,35.40
2017-09-27T10:49:08.831Z,36.30
2017-09-27T10:51:37.226Z,37.80
2017-09-27T10:54:04.824Z,37.70
2017-09-27T10:56:32.813Z,37.70
2017-09-27T10:59:00.419Z,36.80
2017-09-27T11:01:28.021Z,36.10
2017-09-27T11:03:55.666Z,36.00
2017-09-27T11:06:23.274Z,36.10
2017-09-27T11:08:50.870Z,37.00
2017-09-27T11:11:18.505Z,37.40
2017-09-27T11:13:46.866Z,38.80
2017-09-27T11:16:14.476Z,38.70
2017-09-27T11:18:42.205Z,38.70
2017-09-27T11:21:10.582Z,38.40
2017-09-27T11:23:38.994Z,37.00
2017-09-27T11:26:06.587Z,37.00
2017-09-27T11:28:34.180Z,35.40
2017-09-27T11:31:02.563Z,31.90
2017-09-27T11:33:30.159Z,31.80
2017-09-27T11:35:57.917Z,30.90
2017-09-27T11:38:25.536Z,30.10
2017-09-27T11:40:53.889Z,28.20
2017-09-27T11:43:21.866Z,28.10
2017-09-27T11:45:49.565Z,28.30
2017-09-27T11:48:17.928Z,31.80
2017-09-27T11:50:46.322Z,35.70
2017-09-27T11:53:14.679Z,38.80
2017-09-27T11:55:42.643Z,38.70
2017-09-27T11:58:10.261Z,38.90
2017-09-27T12:00:37.880Z,38.90
2017-09-27T12:03:06.264Z,35.10
2017-09-27T12:05:34.621Z,33.40
2017-09-27T12:08:02.328Z,33.30
2017-09-27T12:10:29.924Z,32.30
2017-09-27T12:12:57.525Z,31.80
2017-09-27T12:15:25.902Z,32.20
2017-09-27T12:17:54.265Z,31.60
2017-09-27T12:20:21.916Z,31.50
2017-09-27T12:22:49.508Z,31.30
2017-09-27T12:25:18.774Z,31.90
2017-09-27T12:27:46.385Z,31.90
2017-09-27T12:30:13.985Z,33.60
2017-09-27T12:32:41.625Z,34.80
2017-09-27T12:35:09.212Z,35.00
2017-09-27T12:37:36.791Z,35.70
2017-09-27T12:40:04.405Z,37.50
2017-09-27T12:42:32.009Z,38.10
2017-09-27T12:44:59.676Z,39.60
2017-09-27T12:47:27.283Z,41.80
2017-09-27T12:49:54.877Z,42.80
2017-09-27T12:52:22.504Z,44.10
2017-09-27T12:54:50.091Z,44.90
2017-09-27T12:57:17.736Z,45.50
2017-09-27T12:59:45.345Z,46.20
2017-09-27T13:02:12.939Z,45.90
2017-09-27T13:04:40.544Z,45.80
2017-09-27T13:07:08.170Z,46.10
2017-09-27T13:09:35.809Z,46.70
2017-09-27T13:12:03.408Z,46.80
2017-09-27T13:14:31.001Z,46.80
2017-09-27T13:16:58.882Z,47.00
2017-09-27T13:19:27.254Z,46.30
2017-09-27T13:21:55.664Z,46.30
2017-09-27T13:24:23.349Z,46.30
2017-09-27T13:26:50.939Z,46.00
2017-09-27T13:29:18.588Z,45.20
2017-09-27T13:31:46.187Z,43.00
2017-09-27T13:34:14.622Z,37.80
2017-09-27T13:36:42.264Z,37.70
2017-09-27T13:39:09.867Z,36.30
2017-09-27T13:41:37.469Z,34.80
2017-09-27T13:44:05.100Z,33.70
2017-09-27T13:46:33.479Z,32.30
2017-09-27T13:49:02.011Z,31.60
2017-09-27T13:51:29.675Z,31.60
2017-09-27T13:53:57.341Z,31.00
2017-09-27T13:56:24.988Z,30.90
2017-09-27T13:58:52.595Z,30.50
2017-09-27T14:01:20.288Z,29.90
2017-09-27T14:03:47.912Z,29.50
2017-09-27T14:06:15.525Z,29.20
2017-09-27T14:08:43.160Z,28.70
2017-09-27T14:11:11.547Z,27.80
2017-09-27T14:13:39.909Z,27.70
2017-09-27T14:16:08.317Z,27.60
2017-09-27T14:18:35.924Z,27.60
2017-09-27T14:21:03.537Z,27.00
2017-09-27T14:23:31.166Z,26.80
2017-09-27T14:25:58.762Z,26.80
2017-09-27T14:28:26.407Z,26.80
2017-09-27T14:30:54.782Z,26.40
2017-09-27T14:33:23.165Z,26.20
2017-09-27T14:35:51.566Z,26.10
2017-09-27T14:38:19.165Z,26.10
2017-09-27T14:40:46.823Z,26.00
2017-09-27T14:43:14.449Z,25.80
2017-09-27T14:45:42.052Z,25.60
2017-09-27T14:48:09.722Z,25.60
2017-09-27T14:50:37.390Z,25.60
2017-09-27T14:53:05.034Z,25.00
2017-09-27T14:55:33.413Z,24.20
2017-09-27T14:58:01.008Z,24.20
2017-09-27T15:00:29.426Z,24.40
2017-09-27T15:02:57.037Z,24.40
2017-09-27T15:05:25.426Z,24.30
2017-09-27T15:07:53.102Z,24.30
2017-09-27T15:10:21.191Z,24.30
2017-09-27T15:12:48.852Z,24.20
2017-09-27T15:15:16.868Z,24.40
2017-09-27T15:17:44.710Z,24.70
2017-09-27T15:20:12.320Z,24.90
2017-09-27T15:22:40.714Z,25.00
2017-09-27T15:25:08.310Z,24.90
2017-09-27T15:27:36.239Z,24.80
2017-09-27T15:30:04.610Z,24.80
2017-09-27T15:32:32.988Z,24.90
2017-09-27T15:35:01.405Z,25.00
2017-09-27T15:37:29.030Z,24.90
2017-09-27T15:39:57.182Z,24.80
2017-09-27T15:42:24.792Z,24.40
2017-09-27T15:44:52.394Z,24.20
2017-09-27T15:47:20.010Z,24.30
2017-09-27T15:49:47.689Z,24.30
2017-09-27T15:52:15.693Z,24.30
2017-09-27T15:54:43.304Z,24.30
2017-09-27T15:57:10.918Z,24.40
2017-09-27T15:59:38.537Z,24.30
2017-09-27T16:02:06.135Z,24.10
2017-09-27T16:04:33.781Z,24.00
2017-09-27T16:07:02.174Z,23.80
2017-09-27T16:09:29.782Z,23.80
2017-09-27T16:11:57.723Z,23.80
2017-09-27T16:14:26.110Z,23.70
2017-09-27T16:16:54.486Z,23.50
2017-09-27T16:19:22.900Z,23.40
2017-09-27T16:21:50.521Z,23.40
2017-09-27T16:24:19.249Z,23.20
2017-09-27T16:26:46.869Z,23.20
2017-09-27T16:29:16.091Z,22.90
2017-09-27T16:31:43.759Z,22.90
2017-09-27T16:34:11.398Z,22.90
2017-09-27T16:36:40.167Z,22.60
2017-09-27T16:39:08.548Z,22.50
2017-09-27T16:41:36.161Z,22.50
2017-09-27T16:44:03.792Z,22.40
2017-09-27T16:46:31.431Z,22.30
2017-09-27T16:48:59.465Z,22.30
2017-09-27T16:51:27.096Z,22.10
2017-09-27T16:53:54.722Z,22.10
2017-09-27T16:56:22.347Z,22.00
2017-09-27T16:58:49.967Z,22.00
2017-09-27T17:01:18.834Z,21.70
2017-09-27T17:03:46.440Z,21.70
2017-09-27T17:06:14.048Z,21.50
2017-09-27T17:08:41.685Z,21.50
2017-09-27T17:11:09.317Z,21.40
2017-09-27T17:13:37.342Z,21.40
2017-09-27T17:16:04.950Z,21.30
2017-09-27T17:18:32.578Z,21.10
2017-09-27T17:21:00.989Z,20.90
2017-09-27T17:23:28.578Z,20.90
2017-09-27T17:25:56.576Z,20.80
2017-09-27T17:28:24.193Z,20.90
2017-09-27T17:30:51.971Z,21.00
2017-09-27T17:33:19.653Z,21.00
2017-09-27T17:35:47.319Z,21.00
2017-09-27T17:38:15.389Z,21.00
2017-09-27T17:40:43.024Z,21.00
2017-09-27T17:43:10.632Z,20.80
2017-09-27T17:45:39.045Z,20.40
2017-09-27T17:48:06.656Z,20.30
2017-09-27T17:50:34.719Z,20.40
2017-09-27T17:53:02.357Z,20.40
2017-09-27T17:55:30.747Z,20.40
2017-09-27T17:57:58.413Z,20.30
2017-09-27T18:00:26.026Z,20.30
2017-09-27T18:02:54.059Z,20.20
2017-09-27T18:08:30.554Z,19.90
2017-09-27T18:11:10.246Z,19.90
2017-09-27T18:16:56.761Z,19.80
2017-09-27T18:19:24.685Z,19.80
2017-09-27T18:21:52.329Z,19.80
2017-09-27T18:24:19.948Z,19.80
2017-09-27T18:26:48.357Z,19.80
2017-09-27T18:29:15.968Z,19.70
2017-09-27T18:31:44.026Z,19.70
2017-09-27T18:34:11.679Z,19.70
2017-09-27T18:36:39.296Z,19.60
2017-09-27T18:39:06.932Z,19.40
2017-09-27T18:41:34.587Z,19.50
2017-09-27T18:44:03.356Z,19.50
2017-09-27T18:46:31.888Z,19.50
2017-09-27T18:48:59.510Z,19.40
2017-09-27T18:51:27.990Z,19.30
2017-09-27T18:53:56.381Z,19.30
2017-09-27T18:56:24.540Z,19.20
2017-09-27T18:58:52.989Z,19.20
2017-09-27T19:01:20.627Z,19.10
2017-09-27T19:03:48.321Z,19.10
2017-09-27T19:06:16.077Z,19.00
2017-09-27T19:08:44.086Z,18.90
2017-09-27T19:11:12.469Z,18.80
2017-09-27T19:13:40.963Z,18.60
2017-09-27T19:16:08.898Z,18.60
2017-09-27T19:18:36.525Z,18.60
2017-09-27T19:21:04.930Z,18.60
2017-09-27T19:23:32.651Z,18.50
2017-09-27T19:26:00.319Z,18.60
2017-09-27T19:28:28.318Z,18.60
2017-09-27T19:30:55.981Z,18.60
2017-09-27T19:33:23.608Z,18.60
2017-09-27T19:35:51.246Z,18.60
2017-09-27T19:38:19.776Z,18.50
2017-09-27T19:40:48.217Z,18.50
2017-09-27T19:43:15.926Z,18.40
2017-09-27T19:45:43.734Z,18.50
2017-09-27T19:48:11.795Z,18.40
2017-09-27T19:50:39.511Z,18.40
2017-09-27T19:53:07.146Z,18.40
2017-09-27T19:55:34.828Z,18.40
2017-09-27T19:58:02.478Z,18.40
2017-09-27T20:00:30.767Z,18.30
2017-09-27T20:02:58.692Z,18.30
2017-09-27T20:05:27.111Z,18.20
2017-09-27T20:07:54.807Z,18.20
2017-09-27T20:10:22.504Z,18.10
2017-09-27T20:12:50.184Z,18.10
2017-09-27T20:15:17.857Z,18.10
2017-09-27T20:17:45.549Z,18.00
2017-09-27T20:20:13.266Z,18.00
2017-09-27T20:22:40.884Z,18.00
2017-09-27T20:25:09.010Z,18.00
2017-09-27T20:27:36.670Z,18.00
2017-09-27T20:30:04.361Z,17.90
2017-09-27T20:32:31.994Z,17.90
2017-09-27T20:34:59.861Z,17.90
2017-09-27T20:37:27.864Z,17.90
2017-09-27T20:39:55.521Z,17.90
2017-09-27T20:42:23.143Z,17.80
2017-09-27T20:44:50.784Z,17.80
2017-09-27T20:47:19.198Z,17.60
2017-09-27T20:49:47.233Z,17.60
2017-09-27T20:52:15.606Z,17.70
2017-09-27T20:54:43.988Z,17.70
2017-09-27T20:57:12.380Z,17.60
2017-09-27T20:59:40.042Z,17.60
2017-09-27T21:02:08.837Z,17.30
2017-09-27T21:04:36.537Z,17.30
2017-09-27T21:07:04.159Z,17.20
2017-09-27T21:09:31.817Z,17.10
2017-09-27T21:12:00.192Z,17.20
2017-09-27T21:14:28.952Z,17.20
2017-09-27T21:16:56.569Z,17.20
2017-09-27T21:19:24.191Z,17.30
2017-09-27T21:21:52.579Z,17.30
2017-09-27T21:24:21.076Z,17.40
2017-09-27T21:26:49.098Z,17.30
2017-09-27T21:29:16.696Z,17.30
2017-09-27T21:31:45.064Z,17.20
2017-09-27T21:34:13.465Z,17.20
2017-09-27T21:36:41.077Z,17.20
2017-09-27T21:39:09.012Z,17.20
2017-09-27T21:41:36.613Z,17.10
2017-09-27T21:44:04.306Z,17.10
2017-09-27T21:46:32.702Z,17.00
2017-09-27T21:49:00.313Z,17.00
2017-09-27T21:51:28.286Z,17.00
2017-09-27T21:53:55.880Z,17.00
2017-09-27T21:56:23.498Z,17.00
2017-09-27T21:58:51.208Z,16.90
2017-09-27T22:01:18.812Z,16.90
2017-09-27T22:03:46.812Z,16.80
2017-09-27T22:06:15.203Z,16.70
2017-09-27T22:08:43.599Z,16.80
2017-09-27T22:11:11.229Z,16.70
2017-09-27T22:13:39.657Z,16.80
2017-09-27T22:16:07.304Z,16.80
2017-09-27T22:18:34.918Z,16.70
2017-09-27T22:21:02.518Z,16.60
2017-09-27T22:23:30.202Z,16.60
2017-09-27T22:25:57.827Z,16.60
2017-09-27T22:28:26.238Z,16.60
